sensor_id;sensor_type;location;lat;lon;timestamp;P1;durP1;ratioP1;P2;durP2;ratioP2
11123;SDS011;5616;42.692;23.312;2024-03-17T00:02:00;46.25;;;21.60;;
11123;SDS011;5616;42.692;23.312;2024-03-17T00:04:26;41.67;;;20.95;;
11123;SDS011;5616;42.692;23.312;2024-03-17T00:06:52;44.95;;;21.15;;
11123;SDS011;5616;42.692;23.312;2024-03-17T00:09:18;40.53;;;21.20;;
11123;SDS011;5616;42.692;23.312;2024-03-17T00:11:44;41.35;;;21.48;;
11123;SDS011;5616;42.692;23.312;2024-03-17T00:16:36;37.25;;;19.52;;
11123;SDS011;5616;42.692;23.312;2024-03-17T00:19:02;43.00;;;20.23;;
11123;SDS011;5616;42.692;23.312;2024-03-17T00:21:28;40.30;;;21.02;;
11123;SDS011;5616;42.692;23.312;2024-03-17T00:23:54;41.15;;;20.20;;
11123;SDS011;5616;42.692;23.312;2024-03-17T00:26:19;46.50;;;20.52;;
11123;SDS011;5616;42.692;23.312;2024-03-17T00:28:46;49.90;;;21.27;;
11123;SDS011;5616;42.692;23.312;2024-03-17T00:31:13;46.75;;;21.17;;
11123;SDS011;5616;42.692;23.312;2024-03-17T00:33:40;42.08;;;20.65;;
11123;SDS011;5616;42.692;23.312;2024-03-17T00:36:06;38.28;;;19.25;;
11123;SDS011;5616;42.692;23.312;2024-03-17T00:38:31;41.03;;;20.52;;
11123;SDS011;5616;42.692;23.312;2024-03-17T00:40:57;41.80;;;20.67;;
11123;SDS011;5616;42.692;23.312;2024-03-17T00:43:22;38.50;;;18.90;;
11123;SDS011;5616;42.692;23.312;2024-03-17T00:45:51;38.50;;;19.77;;
11123;SDS011;5616;42.692;23.312;2024-03-17T00:48:17;37.88;;;19.58;;
11123;SDS011;5616;42.692;23.312;2024-03-17T00:50:43;41.03;;;21.13;;
11123;SDS011;5616;42.692;23.312;2024-03-17T00:53:10;38.47;;;19.90;;
11123;SDS011;5616;42.692;23.312;2024-03-17T00:55:36;36.05;;;19.00;;
11123;SDS011;5616;42.692;23.312;2024-03-17T00:58:01;38.60;;;20.48;;
11123;SDS011;5616;42.692;23.312;2024-03-17T01:02:53;34.30;;;17.70;;
11123;SDS011;5616;42.692;23.312;2024-03-17T01:05:19;39.35;;;20.13;;
11123;SDS011;5616;42.692;23.312;2024-03-17T01:07:45;37.78;;;19.98;;
11123;SDS011;5616;42.692;23.312;2024-03-17T01:10:12;38.85;;;19.58;;
11123;SDS011;5616;42.692;23.312;2024-03-17T01:12:37;40.00;;;19.95;;
11123;SDS011;5616;42.692;23.312;2024-03-17T01:15:04;38.30;;;19.77;;
11123;SDS011;5616;42.692;23.312;2024-03-17T01:17:33;38.92;;;19.17;;
11123;SDS011;5616;42.692;23.312;2024-03-17T01:19:59;35.05;;;18.95;;
11123;SDS011;5616;42.692;23.312;2024-03-17T01:22:24;43.55;;;19.40;;
11123;SDS011;5616;42.692;23.312;2024-03-17T01:24:50;34.00;;;17.48;;
11123;SDS011;5616;42.692;23.312;2024-03-17T01:27:16;36.55;;;17.25;;
11123;SDS011;5616;42.692;23.312;2024-03-17T01:29:44;33.85;;;17.25;;
11123;SDS011;5616;42.692;23.312;2024-03-17T01:32:09;31.40;;;16.90;;
11123;SDS011;5616;42.692;23.312;2024-03-17T01:37:02;35.55;;;17.38;;
11123;SDS011;5616;42.692;23.312;2024-03-17T01:39:27;36.55;;;17.13;;
11123;SDS011;5616;42.692;23.312;2024-03-17T01:41:52;35.55;;;18.00;;
11123;SDS011;5616;42.692;23.312;2024-03-17T01:44:25;32.90;;;17.15;;
11123;SDS011;5616;42.692;23.312;2024-03-17T01:46:53;40.47;;;18.85;;
11123;SDS011;5616;42.692;23.312;2024-03-17T01:49:20;42.05;;;19.08;;
11123;SDS011;5616;42.692;23.312;2024-03-17T01:51:47;32.75;;;18.13;;
11123;SDS011;5616;42.692;23.312;2024-03-17T01:54:13;32.25;;;17.88;;
11123;SDS011;5616;42.692;23.312;2024-03-17T01:59:05;37.28;;;17.42;;
11123;SDS011;5616;42.692;23.312;2024-03-17T02:01:32;39.03;;;17.83;;
11123;SDS011;5616;42.692;23.312;2024-03-17T02:03:58;34.58;;;17.92;;
11123;SDS011;5616;42.692;23.312;2024-03-17T02:06:24;33.60;;;16.58;;
11123;SDS011;5616;42.692;23.312;2024-03-17T02:08:50;33.88;;;17.25;;
11123;SDS011;5616;42.692;23.312;2024-03-17T02:11:23;37.03;;;18.10;;
11123;SDS011;5616;42.692;23.312;2024-03-17T02:13:51;40.38;;;19.55;;
11123;SDS011;5616;42.692;23.312;2024-03-17T02:18:44;34.42;;;17.35;;
11123;SDS011;5616;42.692;23.312;2024-03-17T02:23:35;37.90;;;16.85;;
11123;SDS011;5616;42.692;23.312;2024-03-17T02:26:00;42.90;;;18.73;;
11123;SDS011;5616;42.692;23.312;2024-03-17T02:28:26;43.63;;;19.13;;
11123;SDS011;5616;42.692;23.312;2024-03-17T02:30:51;41.13;;;18.40;;
11123;SDS011;5616;42.692;23.312;2024-03-17T02:33:17;34.40;;;17.67;;
11123;SDS011;5616;42.692;23.312;2024-03-17T02:35:42;39.28;;;17.52;;
11123;SDS011;5616;42.692;23.312;2024-03-17T02:38:09;38.33;;;17.60;;
11123;SDS011;5616;42.692;23.312;2024-03-17T02:40:40;38.75;;;16.90;;
11123;SDS011;5616;42.692;23.312;2024-03-17T02:43:05;35.10;;;17.83;;
11123;SDS011;5616;42.692;23.312;2024-03-17T02:45:31;37.00;;;17.95;;
11123;SDS011;5616;42.692;23.312;2024-03-17T02:47:57;31.70;;;16.80;;
11123;SDS011;5616;42.692;23.312;2024-03-17T02:52:57;37.67;;;18.10;;
11123;SDS011;5616;42.692;23.312;2024-03-17T02:57:59;30.95;;;16.33;;
11123;SDS011;5616;42.692;23.312;2024-03-17T03:00:25;35.30;;;17.13;;
11123;SDS011;5616;42.692;23.312;2024-03-17T03:02:50;34.67;;;17.42;;
11123;SDS011;5616;42.692;23.312;2024-03-17T03:05:15;35.47;;;18.10;;
11123;SDS011;5616;42.692;23.312;2024-03-17T03:07:41;37.05;;;16.98;;
11123;SDS011;5616;42.692;23.312;2024-03-17T03:10:06;40.47;;;18.13;;
11123;SDS011;5616;42.692;23.312;2024-03-17T03:12:32;36.03;;;17.45;;
11123;SDS011;5616;42.692;23.312;2024-03-17T03:14:58;39.33;;;18.83;;
11123;SDS011;5616;42.692;23.312;2024-03-17T03:17:23;37.47;;;18.00;;
11123;SDS011;5616;42.692;23.312;2024-03-17T03:19:49;35.25;;;16.77;;
11123;SDS011;5616;42.692;23.312;2024-03-17T03:22:14;31.98;;;16.77;;
11123;SDS011;5616;42.692;23.312;2024-03-17T03:24:40;34.65;;;17.65;;
11123;SDS011;5616;42.692;23.312;2024-03-17T03:27:07;38.70;;;18.17;;
11123;SDS011;5616;42.692;23.312;2024-03-17T03:29:33;31.80;;;16.90;;
11123;SDS011;5616;42.692;23.312;2024-03-17T03:31:59;39.90;;;18.88;;
11123;SDS011;5616;42.692;23.312;2024-03-17T03:34:24;32.70;;;16.83;;
11123;SDS011;5616;42.692;23.312;2024-03-17T03:36:50;40.50;;;19.30;;
11123;SDS011;5616;42.692;23.312;2024-03-17T03:39:17;35.47;;;18.58;;
11123;SDS011;5616;42.692;23.312;2024-03-17T03:41:44;39.42;;;18.02;;
11123;SDS011;5616;42.692;23.312;2024-03-17T03:44:09;35.88;;;17.40;;
11123;SDS011;5616;42.692;23.312;2024-03-17T03:46:35;35.78;;;16.33;;
11123;SDS011;5616;42.692;23.312;2024-03-17T03:49:01;32.67;;;17.27;;
11123;SDS011;5616;42.692;23.312;2024-03-17T03:51:28;30.75;;;17.30;;
11123;SDS011;5616;42.692;23.312;2024-03-17T03:53:53;36.72;;;17.15;;
11123;SDS011;5616;42.692;23.312;2024-03-17T03:56:19;33.72;;;16.80;;
11123;SDS011;5616;42.692;23.312;2024-03-17T03:58:45;41.35;;;18.70;;
11123;SDS011;5616;42.692;23.312;2024-03-17T04:01:11;37.80;;;18.50;;
11123;SDS011;5616;42.692;23.312;2024-03-17T04:03:37;36.75;;;17.33;;
11123;SDS011;5616;42.692;23.312;2024-03-17T04:06:04;39.15;;;19.13;;
11123;SDS011;5616;42.692;23.312;2024-03-17T04:08:30;41.63;;;19.98;;
11123;SDS011;5616;42.692;23.312;2024-03-17T04:13:22;37.90;;;17.23;;
11123;SDS011;5616;42.692;23.312;2024-03-17T04:15:48;35.53;;;18.02;;
11123;SDS011;5616;42.692;23.312;2024-03-17T04:18:13;41.28;;;18.23;;
11123;SDS011;5616;42.692;23.312;2024-03-17T04:20:41;40.92;;;19.05;;
11123;SDS011;5616;42.692;23.312;2024-03-17T04:23:07;37.88;;;17.80;;
11123;SDS011;5616;42.692;23.312;2024-03-17T04:25:33;37.22;;;18.48;;
11123;SDS011;5616;42.692;23.312;2024-03-17T04:28:00;36.78;;;17.95;;
11123;SDS011;5616;42.692;23.312;2024-03-17T04:30:25;37.45;;;17.70;;
11123;SDS011;5616;42.692;23.312;2024-03-17T04:32:51;41.03;;;19.05;;
11123;SDS011;5616;42.692;23.312;2024-03-17T04:35:17;36.72;;;18.58;;
11123;SDS011;5616;42.692;23.312;2024-03-17T04:37:42;34.72;;;17.27;;
11123;SDS011;5616;42.692;23.312;2024-03-17T04:40:08;35.35;;;17.63;;
11123;SDS011;5616;42.692;23.312;2024-03-17T04:42:37;35.00;;;18.60;;
11123;SDS011;5616;42.692;23.312;2024-03-17T04:45:04;42.22;;;18.63;;
11123;SDS011;5616;42.692;23.312;2024-03-17T04:47:31;34.03;;;18.42;;
11123;SDS011;5616;42.692;23.312;2024-03-17T04:49:56;36.05;;;18.38;;
11123;SDS011;5616;42.692;23.312;2024-03-17T04:52:22;42.47;;;18.27;;
11123;SDS011;5616;42.692;23.312;2024-03-17T04:54:48;44.75;;;18.80;;
11123;SDS011;5616;42.692;23.312;2024-03-17T04:57:13;40.90;;;19.83;;
11123;SDS011;5616;42.692;23.312;2024-03-17T04:59:39;36.72;;;17.98;;
11123;SDS011;5616;42.692;23.312;2024-03-17T05:02:05;36.33;;;18.35;;
11123;SDS011;5616;42.692;23.312;2024-03-17T05:04:31;37.67;;;18.83;;
11123;SDS011;5616;42.692;23.312;2024-03-17T05:06:56;37.35;;;19.05;;
11123;SDS011;5616;42.692;23.312;2024-03-17T05:09:22;33.65;;;18.13;;
11123;SDS011;5616;42.692;23.312;2024-03-17T05:11:49;38.10;;;17.92;;
11123;SDS011;5616;42.692;23.312;2024-03-17T05:14:15;38.85;;;19.02;;
11123;SDS011;5616;42.692;23.312;2024-03-17T05:16:40;38.85;;;18.52;;
11123;SDS011;5616;42.692;23.312;2024-03-17T05:19:06;41.78;;;18.80;;
11123;SDS011;5616;42.692;23.312;2024-03-17T05:21:33;42.60;;;19.75;;
11123;SDS011;5616;42.692;23.312;2024-03-17T05:24:00;41.50;;;19.17;;
11123;SDS011;5616;42.692;23.312;2024-03-17T05:26:26;41.90;;;19.55;;
11123;SDS011;5616;42.692;23.312;2024-03-17T05:28:55;43.72;;;20.35;;
11123;SDS011;5616;42.692;23.312;2024-03-17T05:31:21;38.47;;;19.58;;
11123;SDS011;5616;42.692;23.312;2024-03-17T05:33:47;37.60;;;18.42;;
11123;SDS011;5616;42.692;23.312;2024-03-17T05:36:13;37.17;;;19.15;;
11123;SDS011;5616;42.692;23.312;2024-03-17T05:38:39;38.45;;;20.05;;
11123;SDS011;5616;42.692;23.312;2024-03-17T05:41:05;43.40;;;21.08;;
11123;SDS011;5616;42.692;23.312;2024-03-17T05:43:33;40.25;;;19.73;;
11123;SDS011;5616;42.692;23.312;2024-03-17T05:46:06;40.13;;;19.77;;
11123;SDS011;5616;42.692;23.312;2024-03-17T05:48:37;47.30;;;20.65;;
11123;SDS011;5616;42.692;23.312;2024-03-17T05:51:06;38.80;;;18.75;;
11123;SDS011;5616;42.692;23.312;2024-03-17T05:53:32;38.45;;;19.52;;
11123;SDS011;5616;42.692;23.312;2024-03-17T05:56:02;37.90;;;19.33;;
11123;SDS011;5616;42.692;23.312;2024-03-17T05:58:28;38.85;;;19.98;;
11123;SDS011;5616;42.692;23.312;2024-03-17T06:00:54;41.40;;;19.90;;
11123;SDS011;5616;42.692;23.312;2024-03-17T06:03:20;41.25;;;19.38;;
11123;SDS011;5616;42.692;23.312;2024-03-17T06:05:46;40.85;;;20.50;;
11123;SDS011;5616;42.692;23.312;2024-03-17T06:08:13;36.75;;;19.45;;
11123;SDS011;5616;42.692;23.312;2024-03-17T06:10:42;40.40;;;19.83;;
11123;SDS011;5616;42.692;23.312;2024-03-17T06:13:09;42.25;;;19.52;;
11123;SDS011;5616;42.692;23.312;2024-03-17T06:15:39;39.88;;;19.88;;
11123;SDS011;5616;42.692;23.312;2024-03-17T06:18:05;40.20;;;19.58;;
11123;SDS011;5616;42.692;23.312;2024-03-17T06:20:34;36.78;;;19.30;;
11123;SDS011;5616;42.692;23.312;2024-03-17T06:22:59;36.45;;;18.27;;
11123;SDS011;5616;42.692;23.312;2024-03-17T06:25:25;35.28;;;19.08;;
11123;SDS011;5616;42.692;23.312;2024-03-17T06:27:51;35.35;;;18.77;;
11123;SDS011;5616;42.692;23.312;2024-03-17T06:30:18;36.70;;;20.38;;
11123;SDS011;5616;42.692;23.312;2024-03-17T06:32:44;39.33;;;18.52;;
11123;SDS011;5616;42.692;23.312;2024-03-17T06:35:11;36.13;;;18.23;;
11123;SDS011;5616;42.692;23.312;2024-03-17T06:37:37;34.00;;;17.40;;
11123;SDS011;5616;42.692;23.312;2024-03-17T06:40:03;35.65;;;18.25;;
11123;SDS011;5616;42.692;23.312;2024-03-17T06:42:30;36.65;;;18.00;;
11123;SDS011;5616;42.692;23.312;2024-03-17T06:44:56;38.65;;;17.55;;
11123;SDS011;5616;42.692;23.312;2024-03-17T06:47:22;37.80;;;18.77;;
11123;SDS011;5616;42.692;23.312;2024-03-17T06:49:48;34.65;;;17.85;;
11123;SDS011;5616;42.692;23.312;2024-03-17T06:52:13;35.58;;;17.27;;
11123;SDS011;5616;42.692;23.312;2024-03-17T06:54:39;32.03;;;16.73;;
11123;SDS011;5616;42.692;23.312;2024-03-17T06:57:04;32.38;;;16.42;;
11123;SDS011;5616;42.692;23.312;2024-03-17T06:59:32;31.23;;;16.48;;
11123;SDS011;5616;42.692;23.312;2024-03-17T07:01:58;34.22;;;16.70;;
11123;SDS011;5616;42.692;23.312;2024-03-17T07:04:24;28.42;;;16.08;;
11123;SDS011;5616;42.692;23.312;2024-03-17T07:06:49;32.17;;;18.45;;
11123;SDS011;5616;42.692;23.312;2024-03-17T07:09:15;31.75;;;16.52;;
11123;SDS011;5616;42.692;23.312;2024-03-17T07:11:42;35.40;;;17.95;;
11123;SDS011;5616;42.692;23.312;2024-03-17T07:14:09;26.10;;;15.45;;
11123;SDS011;5616;42.692;23.312;2024-03-17T07:16:34;32.13;;;16.92;;
11123;SDS011;5616;42.692;23.312;2024-03-17T07:19:01;27.88;;;14.77;;
11123;SDS011;5616;42.692;23.312;2024-03-17T07:21:27;33.67;;;16.63;;
11123;SDS011;5616;42.692;23.312;2024-03-17T07:23:52;31.95;;;15.75;;
11123;SDS011;5616;42.692;23.312;2024-03-17T07:26:18;35.22;;;16.88;;
11123;SDS011;5616;42.692;23.312;2024-03-17T07:28:43;28.77;;;15.23;;
11123;SDS011;5616;42.692;23.312;2024-03-17T07:31:10;22.42;;;9.38;;
11123;SDS011;5616;42.692;23.312;2024-03-17T07:33:35;29.70;;;16.00;;
11123;SDS011;5616;42.692;23.312;2024-03-17T07:36:01;30.35;;;16.25;;
11123;SDS011;5616;42.692;23.312;2024-03-17T07:38:28;33.03;;;15.13;;
11123;SDS011;5616;42.692;23.312;2024-03-17T07:40:56;34.60;;;15.43;;
11123;SDS011;5616;42.692;23.312;2024-03-17T07:43:26;31.10;;;14.68;;
11123;SDS011;5616;42.692;23.312;2024-03-17T07:46:05;28.63;;;15.02;;
11123;SDS011;5616;42.692;23.312;2024-03-17T07:48:33;30.15;;;14.98;;
11123;SDS011;5616;42.692;23.312;2024-03-17T07:51:00;22.70;;;12.48;;
11123;SDS011;5616;42.692;23.312;2024-03-17T07:53:30;24.30;;;12.73;;
11123;SDS011;5616;42.692;23.312;2024-03-17T07:55:57;24.17;;;12.45;;
11123;SDS011;5616;42.692;23.312;2024-03-17T07:58:24;20.38;;;12.65;;
11123;SDS011;5616;42.692;23.312;2024-03-17T08:00:51;22.15;;;11.80;;
11123;SDS011;5616;42.692;23.312;2024-03-17T08:03:18;21.85;;;11.63;;
11123;SDS011;5616;42.692;23.312;2024-03-17T08:05:47;22.60;;;11.18;;
11123;SDS011;5616;42.692;23.312;2024-03-17T08:08:17;21.05;;;11.15;;
11123;SDS011;5616;42.692;23.312;2024-03-17T08:10:43;20.25;;;11.10;;
11123;SDS011;5616;42.692;23.312;2024-03-17T08:13:09;18.85;;;10.70;;
11123;SDS011;5616;42.692;23.312;2024-03-17T08:15:35;19.20;;;10.35;;
11123;SDS011;5616;42.692;23.312;2024-03-17T08:18:00;19.95;;;9.88;;
11123;SDS011;5616;42.692;23.312;2024-03-17T08:20:26;18.30;;;10.50;;
11123;SDS011;5616;42.692;23.312;2024-03-17T08:22:51;18.52;;;10.38;;
11123;SDS011;5616;42.692;23.312;2024-03-17T08:25:17;17.10;;;9.90;;
11123;SDS011;5616;42.692;23.312;2024-03-17T08:27:43;19.02;;;11.27;;
11123;SDS011;5616;42.692;23.312;2024-03-17T08:30:09;27.40;;;10.95;;
11123;SDS011;5616;42.692;23.312;2024-03-17T08:32:38;20.33;;;11.43;;
11123;SDS011;5616;42.692;23.312;2024-03-17T08:35:04;17.60;;;11.35;;
11123;SDS011;5616;42.692;23.312;2024-03-17T08:37:31;17.35;;;10.00;;
11123;SDS011;5616;42.692;23.312;2024-03-17T08:39:56;21.25;;;11.82;;
11123;SDS011;5616;42.692;23.312;2024-03-17T08:42:22;18.75;;;11.05;;
11123;SDS011;5616;42.692;23.312;2024-03-17T08:44:47;16.20;;;10.93;;
11123;SDS011;5616;42.692;23.312;2024-03-17T08:47:13;15.45;;;9.75;;
11123;SDS011;5616;42.692;23.312;2024-03-17T08:49:38;19.55;;;10.30;;
11123;SDS011;5616;42.692;23.312;2024-03-17T08:52:04;18.35;;;10.63;;
11123;SDS011;5616;42.692;23.312;2024-03-17T08:54:29;16.60;;;10.68;;
11123;SDS011;5616;42.692;23.312;2024-03-17T08:56:55;17.20;;;10.02;;
11123;SDS011;5616;42.692;23.312;2024-03-17T08:59:20;15.13;;;9.73;;
11123;SDS011;5616;42.692;23.312;2024-03-17T09:01:46;20.50;;;11.50;;
11123;SDS011;5616;42.692;23.312;2024-03-17T09:04:11;19.27;;;10.32;;
11123;SDS011;5616;42.692;23.312;2024-03-17T09:06:37;19.77;;;12.10;;
11123;SDS011;5616;42.692;23.312;2024-03-17T09:09:02;23.55;;;13.38;;
11123;SDS011;5616;42.692;23.312;2024-03-17T09:11:28;22.88;;;12.63;;
11123;SDS011;5616;42.692;23.312;2024-03-17T09:13:54;23.65;;;12.73;;
11123;SDS011;5616;42.692;23.312;2024-03-17T09:16:19;23.40;;;12.30;;
11123;SDS011;5616;42.692;23.312;2024-03-17T09:18:47;22.58;;;12.38;;
11123;SDS011;5616;42.692;23.312;2024-03-17T09:21:14;20.83;;;12.50;;
11123;SDS011;5616;42.692;23.312;2024-03-17T09:23:41;22.15;;;12.27;;
11123;SDS011;5616;42.692;23.312;2024-03-17T09:26:07;22.25;;;13.25;;
11123;SDS011;5616;42.692;23.312;2024-03-17T09:28:34;20.33;;;11.93;;
11123;SDS011;5616;42.692;23.312;2024-03-17T09:31:01;20.85;;;11.27;;
11123;SDS011;5616;42.692;23.312;2024-03-17T09:33:28;21.98;;;12.07;;
11123;SDS011;5616;42.692;23.312;2024-03-17T09:38:32;21.33;;;13.00;;
11123;SDS011;5616;42.692;23.312;2024-03-17T09:41:00;19.08;;;12.55;;
11123;SDS011;5616;42.692;23.312;2024-03-17T09:43:33;20.95;;;11.48;;
11123;SDS011;5616;42.692;23.312;2024-03-17T09:46:01;19.23;;;11.45;;
11123;SDS011;5616;42.692;23.312;2024-03-17T09:48:30;17.08;;;10.27;;
11123;SDS011;5616;42.692;23.312;2024-03-17T09:50:57;17.60;;;8.95;;
11123;SDS011;5616;42.692;23.312;2024-03-17T09:53:25;12.80;;;7.63;;
11123;SDS011;5616;42.692;23.312;2024-03-17T09:55:59;13.13;;;7.85;;
11123;SDS011;5616;42.692;23.312;2024-03-17T09:58:28;12.65;;;7.63;;
11123;SDS011;5616;42.692;23.312;2024-03-17T10:00:53;11.02;;;6.90;;
11123;SDS011;5616;42.692;23.312;2024-03-17T10:06:24;9.60;;;6.47;;
11123;SDS011;5616;42.692;23.312;2024-03-17T10:08:54;8.25;;;6.72;;
11123;SDS011;5616;42.692;23.312;2024-03-17T10:11:25;7.35;;;5.50;;
11123;SDS011;5616;42.692;23.312;2024-03-17T10:16:30;6.30;;;5.35;;
11123;SDS011;5616;42.692;23.312;2024-03-17T10:21:39;8.60;;;5.38;;
11123;SDS011;5616;42.692;23.312;2024-03-17T10:24:25;8.13;;;5.93;;
11123;SDS011;5616;42.692;23.312;2024-03-17T10:26:54;6.60;;;5.10;;
11123;SDS011;5616;42.692;23.312;2024-03-17T10:31:54;5.60;;;4.53;;
11123;SDS011;5616;42.692;23.312;2024-03-17T10:34:38;5.15;;;3.85;;
11123;SDS011;5616;42.692;23.312;2024-03-17T10:39:37;4.47;;;3.70;;
11123;SDS011;5616;42.692;23.312;2024-03-17T10:42:04;5.05;;;4.28;;
11123;SDS011;5616;42.692;23.312;2024-03-17T10:44:31;4.30;;;3.90;;
11123;SDS011;5616;42.692;23.312;2024-03-17T10:46:59;7.63;;;4.63;;
11123;SDS011;5616;42.692;23.312;2024-03-17T10:49:32;5.55;;;4.75;;
11123;SDS011;5616;42.692;23.312;2024-03-17T10:52:00;5.57;;;4.53;;
11123;SDS011;5616;42.692;23.312;2024-03-17T10:54:30;5.00;;;4.47;;
11123;SDS011;5616;42.692;23.312;2024-03-17T10:56:57;4.20;;;3.80;;
11123;SDS011;5616;42.692;23.312;2024-03-17T10:59:38;4.70;;;3.70;;
11123;SDS011;5616;42.692;23.312;2024-03-17T11:02:24;4.10;;;3.72;;
11123;SDS011;5616;42.692;23.312;2024-03-17T11:04:57;5.05;;;3.67;;
11123;SDS011;5616;42.692;23.312;2024-03-17T11:07:24;7.95;;;4.07;;
11123;SDS011;5616;42.692;23.312;2024-03-17T11:09:52;5.43;;;4.68;;
11123;SDS011;5616;42.692;23.312;2024-03-17T11:15:41;8.32;;;5.45;;
11123;SDS011;5616;42.692;23.312;2024-03-17T11:20:33;8.02;;;5.68;;
11123;SDS011;5616;42.692;23.312;2024-03-17T11:23:00;6.85;;;5.82;;
11123;SDS011;5616;42.692;23.312;2024-03-17T11:38:56;4.72;;;4.10;;
11123;SDS011;5616;42.692;23.312;2024-03-17T11:41:41;5.05;;;4.55;;
11123;SDS011;5616;42.692;23.312;2024-03-17T11:46:52;4.78;;;3.72;;
11123;SDS011;5616;42.692;23.312;2024-03-17T11:49:23;5.93;;;4.47;;
11123;SDS011;5616;42.692;23.312;2024-03-17T11:51:50;5.95;;;4.53;;
11123;SDS011;5616;42.692;23.312;2024-03-17T11:54:17;4.22;;;3.72;;
11123;SDS011;5616;42.692;23.312;2024-03-17T11:56:50;6.38;;;4.93;;
11123;SDS011;5616;42.692;23.312;2024-03-17T11:59:17;4.93;;;4.43;;
11123;SDS011;5616;42.692;23.312;2024-03-17T12:01:45;6.95;;;4.95;;
11123;SDS011;5616;42.692;23.312;2024-03-17T12:04:22;6.40;;;4.82;;
11123;SDS011;5616;42.692;23.312;2024-03-17T12:06:55;6.47;;;4.40;;
11123;SDS011;5616;42.692;23.312;2024-03-17T12:09:22;5.68;;;5.07;;
11123;SDS011;5616;42.692;23.312;2024-03-17T12:12:02;4.97;;;4.53;;
11123;SDS011;5616;42.692;23.312;2024-03-17T12:14:29;6.15;;;4.38;;
11123;SDS011;5616;42.692;23.312;2024-03-17T12:16:56;6.97;;;4.55;;
11123;SDS011;5616;42.692;23.312;2024-03-17T12:19:23;5.10;;;4.43;;
11123;SDS011;5616;42.692;23.312;2024-03-17T12:21:53;5.85;;;4.35;;
11123;SDS011;5616;42.692;23.312;2024-03-17T12:24:27;5.93;;;4.35;;
11123;SDS011;5616;42.692;23.312;2024-03-17T12:26:54;5.60;;;4.47;;
11123;SDS011;5616;42.692;23.312;2024-03-17T12:29:22;8.60;;;4.72;;
11123;SDS011;5616;42.692;23.312;2024-03-17T12:31:50;6.53;;;5.18;;
11123;SDS011;5616;42.692;23.312;2024-03-17T12:34:18;7.55;;;5.68;;
11123;SDS011;5616;42.692;23.312;2024-03-17T12:36:44;5.03;;;4.55;;
11123;SDS011;5616;42.692;23.312;2024-03-17T12:39:13;6.75;;;5.40;;
11123;SDS011;5616;42.692;23.312;2024-03-17T12:41:44;5.55;;;5.05;;
11123;SDS011;5616;42.692;23.312;2024-03-17T12:44:28;6.40;;;5.45;;
11123;SDS011;5616;42.692;23.312;2024-03-17T12:47:02;9.40;;;6.15;;
11123;SDS011;5616;42.692;23.312;2024-03-17T12:49:29;8.07;;;6.43;;
11123;SDS011;5616;42.692;23.312;2024-03-17T12:51:56;11.13;;;6.50;;
11123;SDS011;5616;42.692;23.312;2024-03-17T12:54:23;6.47;;;5.85;;
11123;SDS011;5616;42.692;23.312;2024-03-17T12:56:50;7.97;;;6.40;;
11123;SDS011;5616;42.692;23.312;2024-03-17T13:02:25;7.55;;;6.30;;
11123;SDS011;5616;42.692;23.312;2024-03-17T13:07:36;7.72;;;5.80;;
11123;SDS011;5616;42.692;23.312;2024-03-17T13:10:02;7.85;;;5.95;;
11123;SDS011;5616;42.692;23.312;2024-03-17T13:12:29;6.25;;;5.47;;
11123;SDS011;5616;42.692;23.312;2024-03-17T13:14:54;9.77;;;6.03;;
11123;SDS011;5616;42.692;23.312;2024-03-17T13:17:20;12.68;;;6.18;;
11123;SDS011;5616;42.692;23.312;2024-03-17T13:19:45;7.90;;;6.07;;
11123;SDS011;5616;42.692;23.312;2024-03-17T13:22:14;10.43;;;6.20;;
11123;SDS011;5616;42.692;23.312;2024-03-17T13:24:39;8.77;;;7.00;;
11123;SDS011;5616;42.692;23.312;2024-03-17T13:27:05;11.05;;;6.93;;
11123;SDS011;5616;42.692;23.312;2024-03-17T13:29:33;10.30;;;7.30;;
11123;SDS011;5616;42.692;23.312;2024-03-17T13:32:02;14.07;;;7.32;;
11123;SDS011;5616;42.692;23.312;2024-03-17T13:34:28;11.68;;;7.82;;
11123;SDS011;5616;42.692;23.312;2024-03-17T13:36:54;11.95;;;7.60;;
11123;SDS011;5616;42.692;23.312;2024-03-17T13:39:19;10.00;;;7.13;;
11123;SDS011;5616;42.692;23.312;2024-03-17T13:41:49;15.82;;;8.27;;
11123;SDS011;5616;42.692;23.312;2024-03-17T13:44:18;12.05;;;7.75;;
11123;SDS011;5616;42.692;23.312;2024-03-17T13:46:44;11.07;;;7.13;;
11123;SDS011;5616;42.692;23.312;2024-03-17T13:49:09;9.32;;;6.82;;
11123;SDS011;5616;42.692;23.312;2024-03-17T13:51:36;13.23;;;7.95;;
11123;SDS011;5616;42.692;23.312;2024-03-17T13:54:01;11.20;;;7.25;;
11123;SDS011;5616;42.692;23.312;2024-03-17T13:56:27;8.07;;;6.80;;
11123;SDS011;5616;42.692;23.312;2024-03-17T13:58:53;9.13;;;7.43;;
11123;SDS011;5616;42.692;23.312;2024-03-17T14:01:19;11.68;;;7.65;;
11123;SDS011;5616;42.692;23.312;2024-03-17T14:03:45;10.15;;;7.68;;
11123;SDS011;5616;42.692;23.312;2024-03-17T14:06:11;13.32;;;7.40;;
11123;SDS011;5616;42.692;23.312;2024-03-17T14:08:36;11.77;;;7.38;;
11123;SDS011;5616;42.692;23.312;2024-03-17T14:11:02;11.98;;;8.20;;
11123;SDS011;5616;42.692;23.312;2024-03-17T14:13:29;12.52;;;7.30;;
11123;SDS011;5616;42.692;23.312;2024-03-17T14:15:55;10.27;;;7.65;;
11123;SDS011;5616;42.692;23.312;2024-03-17T14:18:24;9.73;;;7.30;;
11123;SDS011;5616;42.692;23.312;2024-03-17T14:20:49;10.20;;;7.50;;
11123;SDS011;5616;42.692;23.312;2024-03-17T14:23:15;8.93;;;6.70;;
11123;SDS011;5616;42.692;23.312;2024-03-17T14:25:41;10.18;;;7.57;;
11123;SDS011;5616;42.692;23.312;2024-03-17T14:28:07;11.55;;;6.90;;
11123;SDS011;5616;42.692;23.312;2024-03-17T14:30:33;7.22;;;6.32;;
11123;SDS011;5616;42.692;23.312;2024-03-17T14:32:58;11.10;;;7.28;;
11123;SDS011;5616;42.692;23.312;2024-03-17T14:35:24;8.32;;;6.93;;
11123;SDS011;5616;42.692;23.312;2024-03-17T14:37:52;10.70;;;7.30;;
11123;SDS011;5616;42.692;23.312;2024-03-17T14:40:18;9.07;;;6.85;;
11123;SDS011;5616;42.692;23.312;2024-03-17T14:42:52;11.40;;;7.72;;
11123;SDS011;5616;42.692;23.312;2024-03-17T14:45:18;11.25;;;7.45;;
11123;SDS011;5616;42.692;23.312;2024-03-17T14:47:45;9.40;;;6.50;;
11123;SDS011;5616;42.692;23.312;2024-03-17T14:50:10;9.60;;;6.45;;
11123;SDS011;5616;42.692;23.312;2024-03-17T14:52:39;11.07;;;7.82;;
11123;SDS011;5616;42.692;23.312;2024-03-17T14:55:11;10.32;;;7.38;;
11123;SDS011;5616;42.692;23.312;2024-03-17T14:57:40;10.15;;;7.25;;
11123;SDS011;5616;42.692;23.312;2024-03-17T15:00:10;11.00;;;7.35;;
11123;SDS011;5616;42.692;23.312;2024-03-17T15:02:44;11.98;;;8.48;;
11123;SDS011;5616;42.692;23.312;2024-03-17T15:05:12;10.38;;;7.32;;
11123;SDS011;5616;42.692;23.312;2024-03-17T15:07:40;11.90;;;8.95;;
11123;SDS011;5616;42.692;23.312;2024-03-17T15:10:06;12.52;;;8.02;;
11123;SDS011;5616;42.692;23.312;2024-03-17T15:14:58;11.38;;;7.30;;
11123;SDS011;5616;42.692;23.312;2024-03-17T15:17:23;11.68;;;7.88;;
11123;SDS011;5616;42.692;23.312;2024-03-17T15:19:49;13.52;;;8.40;;
11123;SDS011;5616;42.692;23.312;2024-03-17T15:22:14;10.32;;;7.28;;
11123;SDS011;5616;42.692;23.312;2024-03-17T15:24:40;11.57;;;7.70;;
11123;SDS011;5616;42.692;23.312;2024-03-17T15:27:05;13.35;;;8.05;;
11123;SDS011;5616;42.692;23.312;2024-03-17T15:29:31;12.63;;;7.82;;
11123;SDS011;5616;42.692;23.312;2024-03-17T15:31:56;17.50;;;8.43;;
11123;SDS011;5616;42.692;23.312;2024-03-17T15:34:22;12.15;;;8.20;;
11123;SDS011;5616;42.692;23.312;2024-03-17T15:39:14;11.55;;;7.38;;